sensor_id;sensor_type;location;lat;lon;timestamp;P1;durP1;ratioP1;P2;durP2;ratioP2
10882;SDS011;5494;51.796;10.952;2022-10-03T00:00:11;7.10;;;1.70;;
10882;SDS011;5494;51.796;10.952;2022-10-03T00:03:09;7.37;;;2.63;;
10882;SDS011;5494;51.796;10.952;2022-10-03T00:05:57;9.23;;;1.93;;
10882;SDS011;5494;51.796;10.952;2022-10-03T00:08:42;13.93;;;2.30;;
10882;SDS011;5494;51.796;10.952;2022-10-03T00:11:40;9.73;;;2.53;;
10882;SDS011;5494;51.796;10.952;2022-10-03T00:14:28;7.43;;;1.93;;
10882;SDS011;5494;51.796;10.952;2022-10-03T00:17:09;9.73;;;1.77;;
10882;SDS011;5494;51.796;10.952;2022-10-03T00:19:50;7.07;;;2.33;;
10882;SDS011;5494;51.796;10.952;2022-10-03T00:22:32;7.10;;;1.87;;
10882;SDS011;5494;51.796;10.952;2022-10-03T00:25:19;8.17;;;2.10;;
10882;SDS011;5494;51.796;10.952;2022-10-03T00:28:06;8.13;;;2.10;;
10882;SDS011;5494;51.796;10.952;2022-10-03T00:30:57;10.90;;;3.37;;
10882;SDS011;5494;51.796;10.952;2022-10-03T00:33:39;10.70;;;2.37;;
10882;SDS011;5494;51.796;10.952;2022-10-03T00:36:30;13.43;;;2.83;;
10882;SDS011;5494;51.796;10.952;2022-10-03T00:39:19;11.50;;;1.97;;
10882;SDS011;5494;51.796;10.952;2022-10-03T00:42:19;8.20;;;1.83;;
10882;SDS011;5494;51.796;10.952;2022-10-03T00:48:43;10.47;;;2.40;;
10882;SDS011;5494;51.796;10.952;2022-10-03T00:51:51;11.10;;;1.97;;
10882;SDS011;5494;51.796;10.952;2022-10-03T00:54:43;6.03;;;1.73;;
10882;SDS011;5494;51.796;10.952;2022-10-03T00:57:36;10.10;;;1.80;;
10882;SDS011;5494;51.796;10.952;2022-10-03T01:00:26;9.57;;;1.93;;
10882;SDS011;5494;51.796;10.952;2022-10-03T01:03:07;10.47;;;2.30;;
10882;SDS011;5494;51.796;10.952;2022-10-03T01:05:58;9.67;;;1.83;;
10882;SDS011;5494;51.796;10.952;2022-10-03T01:08:56;8.40;;;1.70;;
10882;SDS011;5494;51.796;10.952;2022-10-03T01:11:51;7.90;;;2.50;;
10882;SDS011;5494;51.796;10.952;2022-10-03T01:14:43;8.90;;;1.70;;
10882;SDS011;5494;51.796;10.952;2022-10-03T01:17:36;8.73;;;1.73;;
10882;SDS011;5494;51.796;10.952;2022-10-03T01:20:38;9.50;;;1.90;;
10882;SDS011;5494;51.796;10.952;2022-10-03T01:26:39;9.93;;;1.93;;
10882;SDS011;5494;51.796;10.952;2022-10-03T01:29:25;9.73;;;2.27;;
10882;SDS011;5494;51.796;10.952;2022-10-03T01:32:36;5.90;;;2.30;;
10882;SDS011;5494;51.796;10.952;2022-10-03T01:35:18;9.70;;;2.03;;
10882;SDS011;5494;51.796;10.952;2022-10-03T01:38:00;9.33;;;2.50;;
10882;SDS011;5494;51.796;10.952;2022-10-03T01:40:47;8.17;;;2.10;;
10882;SDS011;5494;51.796;10.952;2022-10-03T01:43:29;10.13;;;1.90;;
10882;SDS011;5494;51.796;10.952;2022-10-03T01:46:12;10.37;;;2.30;;
10882;SDS011;5494;51.796;10.952;2022-10-03T01:48:50;12.73;;;2.57;;
10882;SDS011;5494;51.796;10.952;2022-10-03T01:51:29;10.17;;;2.07;;
10882;SDS011;5494;51.796;10.952;2022-10-03T01:54:15;10.73;;;1.93;;
10882;SDS011;5494;51.796;10.952;2022-10-03T01:56:56;10.50;;;2.87;;
10882;SDS011;5494;51.796;10.952;2022-10-03T01:59:38;10.80;;;2.03;;
10882;SDS011;5494;51.796;10.952;2022-10-03T02:02:22;10.87;;;2.47;;
10882;SDS011;5494;51.796;10.952;2022-10-03T02:05:02;7.20;;;1.90;;
10882;SDS011;5494;51.796;10.952;2022-10-03T02:07:39;6.67;;;2.03;;
10882;SDS011;5494;51.796;10.952;2022-10-03T02:10:19;10.87;;;2.00;;
10882;SDS011;5494;51.796;10.952;2022-10-03T02:13:02;8.73;;;1.97;;
10882;SDS011;5494;51.796;10.952;2022-10-03T02:15:46;12.53;;;2.93;;
10882;SDS011;5494;51.796;10.952;2022-10-03T02:18:33;11.93;;;2.93;;
10882;SDS011;5494;51.796;10.952;2022-10-03T02:21:13;12.27;;;2.83;;
10882;SDS011;5494;51.796;10.952;2022-10-03T02:23:47;9.60;;;2.50;;
10882;SDS011;5494;51.796;10.952;2022-10-03T02:26:45;8.60;;;2.40;;
10882;SDS011;5494;51.796;10.952;2022-10-03T02:42:58;8.00;;;2.10;;
10882;SDS011;5494;51.796;10.952;2022-10-03T02:46:35;8.13;;;2.20;;
10882;SDS011;5494;51.796;10.952;2022-10-03T02:49:38;9.93;;;2.00;;
10882;SDS011;5494;51.796;10.952;2022-10-03T02:53:02;4.23;;;1.83;;
10882;SDS011;5494;51.796;10.952;2022-10-03T02:56:30;8.13;;;2.20;;
10882;SDS011;5494;51.796;10.952;2022-10-03T02:59:47;5.93;;;1.50;;
10882;SDS011;5494;51.796;10.952;2022-10-03T03:02:52;8.20;;;1.90;;
10882;SDS011;5494;51.796;10.952;2022-10-03T03:06:16;7.70;;;2.57;;
10882;SDS011;5494;51.796;10.952;2022-10-03T03:12:51;5.70;;;1.50;;
10882;SDS011;5494;51.796;10.952;2022-10-03T03:19:33;7.00;;;2.17;;
10882;SDS011;5494;51.796;10.952;2022-10-03T03:22:33;5.77;;;1.67;;
10882;SDS011;5494;51.796;10.952;2022-10-03T03:25:29;8.73;;;1.97;;
10882;SDS011;5494;51.796;10.952;2022-10-03T03:28:30;4.00;;;2.13;;
10882;SDS011;5494;51.796;10.952;2022-10-03T03:31:12;9.77;;;1.90;;
10882;SDS011;5494;51.796;10.952;2022-10-03T03:33:51;12.60;;;3.10;;
10882;SDS011;5494;51.796;10.952;2022-10-03T03:36:34;8.47;;;1.93;;
10882;SDS011;5494;51.796;10.952;2022-10-03T03:39:16;4.17;;;2.03;;
10882;SDS011;5494;51.796;10.952;2022-10-03T03:42:14;9.57;;;2.30;;
10882;SDS011;5494;51.796;10.952;2022-10-03T03:45:12;6.43;;;2.10;;
10882;SDS011;5494;51.796;10.952;2022-10-03T03:48:04;9.67;;;2.53;;
10882;SDS011;5494;51.796;10.952;2022-10-03T03:51:09;8.47;;;2.40;;
10882;SDS011;5494;51.796;10.952;2022-10-03T03:54:02;7.07;;;2.10;;
10882;SDS011;5494;51.796;10.952;2022-10-03T03:57:20;6.70;;;1.90;;
10882;SDS011;5494;51.796;10.952;2022-10-03T04:00:28;6.30;;;1.63;;
10882;SDS011;5494;51.796;10.952;2022-10-03T04:03:23;6.87;;;1.70;;
10882;SDS011;5494;51.796;10.952;2022-10-03T04:06:15;10.73;;;2.00;;
10882;SDS011;5494;51.796;10.952;2022-10-03T04:09:13;8.93;;;1.97;;
10882;SDS011;5494;51.796;10.952;2022-10-03T04:12:16;5.00;;;1.57;;
10882;SDS011;5494;51.796;10.952;2022-10-03T04:15:07;6.67;;;1.77;;
10882;SDS011;5494;51.796;10.952;2022-10-03T04:17:59;8.57;;;2.13;;
10882;SDS011;5494;51.796;10.952;2022-10-03T04:21:19;6.20;;;1.57;;
10882;SDS011;5494;51.796;10.952;2022-10-03T04:27:30;9.43;;;2.13;;
10882;SDS011;5494;51.796;10.952;2022-10-03T04:30:25;9.27;;;2.20;;
10882;SDS011;5494;51.796;10.952;2022-10-03T04:33:10;7.17;;;2.20;;
10882;SDS011;5494;51.796;10.952;2022-10-03T04:36:19;8.70;;;2.30;;
10882;SDS011;5494;51.796;10.952;2022-10-03T04:39:19;8.83;;;2.90;;
10882;SDS011;5494;51.796;10.952;2022-10-03T04:42:00;11.67;;;3.00;;
10882;SDS011;5494;51.796;10.952;2022-10-03T04:44:48;8.90;;;2.90;;
10882;SDS011;5494;51.796;10.952;2022-10-03T04:47:45;6.63;;;2.40;;
10882;SDS011;5494;51.796;10.952;2022-10-03T04:50:23;8.20;;;2.50;;
10882;SDS011;5494;51.796;10.952;2022-10-03T04:53:07;9.63;;;2.87;;
10882;SDS011;5494;51.796;10.952;2022-10-03T04:55:59;8.90;;;2.53;;
10882;SDS011;5494;51.796;10.952;2022-10-03T04:58:54;8.33;;;2.30;;
10882;SDS011;5494;51.796;10.952;2022-10-03T05:01:39;8.73;;;2.50;;
10882;SDS011;5494;51.796;10.952;2022-10-03T05:04:18;11.07;;;2.47;;
10882;SDS011;5494;51.796;10.952;2022-10-03T05:07:01;5.67;;;2.10;;
10882;SDS011;5494;51.796;10.952;2022-10-03T05:09:44;6.07;;;2.00;;
10882;SDS011;5494;51.796;10.952;2022-10-03T05:12:27;11.50;;;1.80;;
10882;SDS011;5494;51.796;10.952;2022-10-03T05:15:12;13.67;;;2.50;;
10882;SDS011;5494;51.796;10.952;2022-10-03T05:17:57;6.57;;;2.33;;
10882;SDS011;5494;51.796;10.952;2022-10-03T05:20:43;6.47;;;2.03;;
10882;SDS011;5494;51.796;10.952;2022-10-03T05:23:24;7.33;;;2.27;;
10882;SDS011;5494;51.796;10.952;2022-10-03T05:26:10;4.47;;;1.80;;
10882;SDS011;5494;51.796;10.952;2022-10-03T05:29:14;8.10;;;2.67;;
10882;SDS011;5494;51.796;10.952;2022-10-03T05:32:02;5.13;;;2.40;;
10882;SDS011;5494;51.796;10.952;2022-10-03T05:34:59;10.37;;;2.33;;
10882;SDS011;5494;51.796;10.952;2022-10-03T05:37:58;5.63;;;1.80;;
10882;SDS011;5494;51.796;10.952;2022-10-03T05:41:00;5.87;;;1.63;;
10882;SDS011;5494;51.796;10.952;2022-10-03T05:43:44;6.53;;;2.07;;
10882;SDS011;5494;51.796;10.952;2022-10-03T05:46:32;13.07;;;1.97;;
10882;SDS011;5494;51.796;10.952;2022-10-03T05:49:30;5.50;;;2.60;;
10882;SDS011;5494;51.796;10.952;2022-10-03T05:52:26;8.77;;;1.90;;
10882;SDS011;5494;51.796;10.952;2022-10-03T05:55:19;8.97;;;2.13;;
10882;SDS011;5494;51.796;10.952;2022-10-03T05:58:26;5.90;;;1.90;;
10882;SDS011;5494;51.796;10.952;2022-10-03T06:01:29;7.23;;;2.40;;
10882;SDS011;5494;51.796;10.952;2022-10-03T06:04:36;5.23;;;2.67;;
10882;SDS011;5494;51.796;10.952;2022-10-03T06:07:44;7.87;;;2.60;;
10882;SDS011;5494;51.796;10.952;2022-10-03T06:10:41;9.30;;;2.73;;
10882;SDS011;5494;51.796;10.952;2022-10-03T06:13:24;7.27;;;2.17;;
10882;SDS011;5494;51.796;10.952;2022-10-03T06:16:21;5.40;;;2.00;;
10882;SDS011;5494;51.796;10.952;2022-10-03T06:19:05;8.83;;;2.00;;
10882;SDS011;5494;51.796;10.952;2022-10-03T06:25:11;6.43;;;2.20;;
10882;SDS011;5494;51.796;10.952;2022-10-03T06:32:04;4.77;;;1.37;;
10882;SDS011;5494;51.796;10.952;2022-10-03T06:35:28;5.30;;;1.90;;
10882;SDS011;5494;51.796;10.952;2022-10-03T06:42:04;8.03;;;2.10;;
10882;SDS011;5494;51.796;10.952;2022-10-03T06:49:00;4.63;;;1.50;;
10882;SDS011;5494;51.796;10.952;2022-10-03T06:52:30;6.83;;;1.73;;
10882;SDS011;5494;51.796;10.952;2022-10-03T06:55:39;7.13;;;1.97;;
10882;SDS011;5494;51.796;10.952;2022-10-03T07:01:54;6.17;;;2.00;;
10882;SDS011;5494;51.796;10.952;2022-10-03T07:05:19;4.77;;;1.43;;
10882;SDS011;5494;51.796;10.952;2022-10-03T07:12:14;7.30;;;1.40;;
10882;SDS011;5494;51.796;10.952;2022-10-03T07:15:33;9.50;;;1.87;;
10882;SDS011;5494;51.796;10.952;2022-10-03T07:18:59;9.33;;;1.80;;
10882;SDS011;5494;51.796;10.952;2022-10-03T07:22:03;9.17;;;1.77;;
10882;SDS011;5494;51.796;10.952;2022-10-03T07:25:29;8.70;;;1.20;;
10882;SDS011;5494;51.796;10.952;2022-10-03T07:31:49;7.17;;;1.60;;
10882;SDS011;5494;51.796;10.952;2022-10-03T07:42:20;4.50;;;1.87;;
10882;SDS011;5494;51.796;10.952;2022-10-03T07:45:23;5.30;;;1.37;;
10882;SDS011;5494;51.796;10.952;2022-10-03T07:51:25;5.87;;;1.57;;
10882;SDS011;5494;51.796;10.952;2022-10-03T07:57:16;5.80;;;2.17;;
10882;SDS011;5494;51.796;10.952;2022-10-03T08:00:42;6.00;;;1.70;;
10882;SDS011;5494;51.796;10.952;2022-10-03T08:07:22;6.20;;;1.60;;
10882;SDS011;5494;51.796;10.952;2022-10-03T08:10:17;9.17;;;2.10;;
10882;SDS011;5494;51.796;10.952;2022-10-03T08:13:30;6.90;;;2.10;;
10882;SDS011;5494;51.796;10.952;2022-10-03T08:16:37;5.27;;;1.80;;
10882;SDS011;5494;51.796;10.952;2022-10-03T08:19:34;3.60;;;1.77;;
10882;SDS011;5494;51.796;10.952;2022-10-03T08:22:54;8.53;;;1.80;;
10882;SDS011;5494;51.796;10.952;2022-10-03T08:25:50;7.43;;;1.37;;
10882;SDS011;5494;51.796;10.952;2022-10-03T08:28:44;4.63;;;1.63;;
10882;SDS011;5494;51.796;10.952;2022-10-03T08:31:56;6.20;;;1.77;;
10882;SDS011;5494;51.796;10.952;2022-10-03T08:35:07;7.40;;;1.40;;
10882;SDS011;5494;51.796;10.952;2022-10-03T08:38:08;6.73;;;2.20;;
10882;SDS011;5494;51.796;10.952;2022-10-03T08:51:30;5.23;;;1.20;;
10882;SDS011;5494;51.796;10.952;2022-10-03T08:57:35;7.40;;;1.90;;
10882;SDS011;5494;51.796;10.952;2022-10-03T09:00:35;4.43;;;1.53;;
10882;SDS011;5494;51.796;10.952;2022-10-03T09:03:48;7.30;;;1.93;;
10882;SDS011;5494;51.796;10.952;2022-10-03T09:07:00;6.70;;;1.77;;
10882;SDS011;5494;51.796;10.952;2022-10-03T09:10:09;5.87;;;1.80;;
10882;SDS011;5494;51.796;10.952;2022-10-03T09:13:30;6.03;;;1.70;;
10882;SDS011;5494;51.796;10.952;2022-10-03T09:16:50;6.30;;;1.40;;
10882;SDS011;5494;51.796;10.952;2022-10-03T09:22:58;7.77;;;1.80;;
10882;SDS011;5494;51.796;10.952;2022-10-03T09:29:11;5.50;;;1.60;;
10882;SDS011;5494;51.796;10.952;2022-10-03T09:32:17;8.70;;;1.50;;
10882;SDS011;5494;51.796;10.952;2022-10-03T09:35:22;6.00;;;1.70;;
10882;SDS011;5494;51.796;10.952;2022-10-03T09:38:20;4.63;;;1.80;;
10882;SDS011;5494;51.796;10.952;2022-10-03T09:45:06;6.73;;;1.60;;
10882;SDS011;5494;51.796;10.952;2022-10-03T09:51:14;5.47;;;1.33;;
10882;SDS011;5494;51.796;10.952;2022-10-03T09:57:42;8.47;;;1.80;;
10882;SDS011;5494;51.796;10.952;2022-10-03T10:00:51;7.77;;;1.63;;
10882;SDS011;5494;51.796;10.952;2022-10-03T10:10:54;7.27;;;1.60;;
10882;SDS011;5494;51.796;10.952;2022-10-03T10:14:11;5.43;;;1.80;;
10882;SDS011;5494;51.796;10.952;2022-10-03T10:20:38;9.47;;;2.00;;
10882;SDS011;5494;51.796;10.952;2022-10-03T10:23:39;6.77;;;2.00;;
10882;SDS011;5494;51.796;10.952;2022-10-03T10:29:53;4.87;;;1.37;;
10882;SDS011;5494;51.796;10.952;2022-10-03T10:39:56;5.40;;;1.40;;
10882;SDS011;5494;51.796;10.952;2022-10-03T10:46:36;5.23;;;1.83;;
10882;SDS011;5494;51.796;10.952;2022-10-03T10:54:07;3.97;;;1.73;;
10882;SDS011;5494;51.796;10.952;2022-10-03T10:57:14;6.03;;;1.43;;
10882;SDS011;5494;51.796;10.952;2022-10-03T11:00:05;4.83;;;1.13;;
10882;SDS011;5494;51.796;10.952;2022-10-03T11:06:51;4.57;;;1.57;;
10882;SDS011;5494;51.796;10.952;2022-10-03T11:09:51;5.53;;;1.60;;
10882;SDS011;5494;51.796;10.952;2022-10-03T11:13:13;4.97;;;2.13;;
10882;SDS011;5494;51.796;10.952;2022-10-03T11:23:56;6.47;;;2.00;;
10882;SDS011;5494;51.796;10.952;2022-10-03T11:30:40;3.00;;;1.10;;
10882;SDS011;5494;51.796;10.952;2022-10-03T11:37:32;5.93;;;1.73;;
10882;SDS011;5494;51.796;10.952;2022-10-03T11:40:13;4.27;;;1.43;;
10882;SDS011;5494;51.796;10.952;2022-10-03T11:43:17;4.73;;;1.20;;
10882;SDS011;5494;51.796;10.952;2022-10-03T11:46:46;3.57;;;1.20;;
10882;SDS011;5494;51.796;10.952;2022-10-03T11:49:35;5.67;;;1.17;;
10882;SDS011;5494;51.796;10.952;2022-10-03T11:52:44;5.20;;;1.17;;
10882;SDS011;5494;51.796;10.952;2022-10-03T11:55:36;5.67;;;1.70;;
10882;SDS011;5494;51.796;10.952;2022-10-03T11:58:13;4.23;;;1.40;;
10882;SDS011;5494;51.796;10.952;2022-10-03T12:01:15;3.17;;;0.90;;
10882;SDS011;5494;51.796;10.952;2022-10-03T12:03:56;6.20;;;1.40;;
10882;SDS011;5494;51.796;10.952;2022-10-03T12:06:47;3.90;;;1.10;;
10882;SDS011;5494;51.796;10.952;2022-10-03T12:09:53;4.00;;;1.27;;
10882;SDS011;5494;51.796;10.952;2022-10-03T12:12:32;2.77;;;1.40;;
10882;SDS011;5494;51.796;10.952;2022-10-03T12:15:22;5.73;;;1.60;;
10882;SDS011;5494;51.796;10.952;2022-10-03T12:18:03;4.87;;;1.53;;
10882;SDS011;5494;51.796;10.952;2022-10-03T12:20:56;8.20;;;2.00;;
10882;SDS011;5494;51.796;10.952;2022-10-03T12:26:46;4.60;;;1.80;;
10882;SDS011;5494;51.796;10.952;2022-10-03T12:29:25;10.90;;;4.23;;
10882;SDS011;5494;51.796;10.952;2022-10-03T12:32:01;10.57;;;4.37;;
10882;SDS011;5494;51.796;10.952;2022-10-03T12:34:47;8.37;;;4.10;;
10882;SDS011;5494;51.796;10.952;2022-10-03T12:37:33;4.87;;;2.37;;
10882;SDS011;5494;51.796;10.952;2022-10-03T12:40:16;6.20;;;1.60;;
10882;SDS011;5494;51.796;10.952;2022-10-03T12:42:59;4.40;;;1.70;;
10882;SDS011;5494;51.796;10.952;2022-10-03T12:45:38;4.60;;;1.50;;
10882;SDS011;5494;51.796;10.952;2022-10-03T12:48:20;7.60;;;1.63;;
10882;SDS011;5494;51.796;10.952;2022-10-03T12:51:13;4.70;;;1.30;;
10882;SDS011;5494;51.796;10.952;2022-10-03T12:54:07;4.63;;;1.47;;
10882;SDS011;5494;51.796;10.952;2022-10-03T12:57:04;4.67;;;1.43;;
10882;SDS011;5494;51.796;10.952;2022-10-03T13:00:05;3.83;;;1.30;;
10882;SDS011;5494;51.796;10.952;2022-10-03T13:02:51;6.47;;;1.70;;
10882;SDS011;5494;51.796;10.952;2022-10-03T13:06:13;7.17;;;1.63;;
10882;SDS011;5494;51.796;10.952;2022-10-03T13:09:36;3.67;;;1.33;;
10882;SDS011;5494;51.796;10.952;2022-10-03T13:12:30;5.47;;;1.80;;
10882;SDS011;5494;51.796;10.952;2022-10-03T13:18:28;4.47;;;1.43;;
10882;SDS011;5494;51.796;10.952;2022-10-03T13:21:13;4.63;;;1.47;;
10882;SDS011;5494;51.796;10.952;2022-10-03T13:24:08;5.33;;;1.30;;
10882;SDS011;5494;51.796;10.952;2022-10-03T13:26:51;3.87;;;1.60;;
10882;SDS011;5494;51.796;10.952;2022-10-03T13:29:38;3.00;;;1.73;;
10882;SDS011;5494;51.796;10.952;2022-10-03T13:32:18;3.30;;;1.60;;
10882;SDS011;5494;51.796;10.952;2022-10-03T13:35:13;2.77;;;1.40;;
10882;SDS011;5494;51.796;10.952;2022-10-03T13:38:16;4.13;;;1.43;;
10882;SDS011;5494;51.796;10.952;2022-10-03T13:41:14;4.27;;;1.63;;
10882;SDS011;5494;51.796;10.952;2022-10-03T13:43:55;4.53;;;1.23;;
10882;SDS011;5494;51.796;10.952;2022-10-03T13:46:29;4.07;;;1.23;;
10882;SDS011;5494;51.796;10.952;2022-10-03T13:49:13;3.73;;;1.00;;
10882;SDS011;5494;51.796;10.952;2022-10-03T13:51:58;3.93;;;1.20;;
10882;SDS011;5494;51.796;10.952;2022-10-03T13:54:45;5.83;;;1.27;;
10882;SDS011;5494;51.796;10.952;2022-10-03T13:57:43;2.87;;;1.13;;
10882;SDS011;5494;51.796;10.952;2022-10-03T14:00:40;4.00;;;2.00;;
10882;SDS011;5494;51.796;10.952;2022-10-03T14:03:39;4.80;;;1.20;;
10882;SDS011;5494;51.796;10.952;2022-10-03T14:06:24;3.53;;;1.00;;
10882;SDS011;5494;51.796;10.952;2022-10-03T14:09:10;5.77;;;1.27;;
10882;SDS011;5494;51.796;10.952;2022-10-03T14:12:20;6.30;;;1.20;;
10882;SDS011;5494;51.796;10.952;2022-10-03T14:15:22;2.87;;;1.50;;
10882;SDS011;5494;51.796;10.952;2022-10-03T14:18:07;3.53;;;0.87;;
10882;SDS011;5494;51.796;10.952;2022-10-03T14:24:26;5.43;;;1.47;;
10882;SDS011;5494;51.796;10.952;2022-10-03T14:27:15;4.97;;;1.77;;
10882;SDS011;5494;51.796;10.952;2022-10-03T14:30:26;3.73;;;1.50;;
10882;SDS011;5494;51.796;10.952;2022-10-03T14:33:31;4.10;;;1.03;;
10882;SDS011;5494;51.796;10.952;2022-10-03T14:36:15;3.97;;;1.50;;
10882;SDS011;5494;51.796;10.952;2022-10-03T14:39:14;4.27;;;1.10;;
10882;SDS011;5494;51.796;10.952;2022-10-03T14:42:27;3.30;;;1.37;;
10882;SDS011;5494;51.796;10.952;2022-10-03T14:45:10;2.73;;;1.27;;
10882;SDS011;5494;51.796;10.952;2022-10-03T14:47:46;5.93;;;1.40;;
10882;SDS011;5494;51.796;10.952;2022-10-03T14:50:21;3.27;;;1.53;;
10882;SDS011;5494;51.796;10.952;2022-10-03T14:52:55;6.37;;;1.43;;
10882;SDS011;5494;51.796;10.952;2022-10-03T14:55:31;4.83;;;1.83;;
10882;SDS011;5494;51.796;10.952;2022-10-03T14:58:11;3.83;;;1.20;;
10882;SDS011;5494;51.796;10.952;2022-10-03T15:00:47;1.63;;;1.10;;
10882;SDS011;5494;51.796;10.952;2022-10-03T15:03:22;5.57;;;1.30;;
10882;SDS011;5494;51.796;10.952;2022-10-03T15:06:00;3.67;;;1.30;;
10882;SDS011;5494;51.796;10.952;2022-10-03T15:08:48;3.17;;;1.03;;
10882;SDS011;5494;51.796;10.952;2022-10-03T15:11:24;3.17;;;0.90;;
10882;SDS011;5494;51.796;10.952;2022-10-03T15:13:58;5.83;;;1.60;;
10882;SDS011;5494;51.796;10.952;2022-10-03T15:16:31;3.17;;;0.93;;
10882;SDS011;5494;51.796;10.952;2022-10-03T15:19:08;4.00;;;1.20;;
10882;SDS011;5494;51.796;10.952;2022-10-03T15:21:43;3.07;;;1.40;;
10882;SDS011;5494;51.796;10.952;2022-10-03T15:24:17;4.90;;;1.90;;
10882;SDS011;5494;51.796;10.952;2022-10-03T15:26:56;3.10;;;1.13;;
10882;SDS011;5494;51.796;10.952;2022-10-03T15:29:33;4.27;;;1.27;;
10882;SDS011;5494;51.796;10.952;2022-10-03T15:32:06;4.80;;;1.00;;
10882;SDS011;5494;51.796;10.952;2022-10-03T15:34:48;3.90;;;1.57;;
10882;SDS011;5494;51.796;10.952;2022-10-03T15:37:28;3.97;;;1.30;;
10882;SDS011;5494;51.796;10.952;2022-10-03T15:40:02;4.63;;;1.50;;
10882;SDS011;5494;51.796;10.952;2022-10-03T15:42:49;6.17;;;1.83;;
10882;SDS011;5494;51.796;10.952;2022-10-03T15:45:30;2.47;;;1.37;;
10882;SDS011;5494;51.796;10.952;2022-10-03T15:48:03;3.97;;;1.63;;
10882;SDS011;5494;51.796;10.952;2022-10-03T15:50:39;2.63;;;1.00;;
10882;SDS011;5494;51.796;10.952;2022-10-03T15:53:12;3.70;;;1.20;;
10882;SDS011;5494;51.796;10.952;2022-10-03T15:56:08;3.03;;;1.37;;
10882;SDS011;5494;51.796;10.952;2022-10-03T15:58:45;3.93;;;1.27;;
10882;SDS011;5494;51.796;10.952;2022-10-03T16:01:18;4.63;;;1.50;;
10882;SDS011;5494;51.796;10.952;2022-10-03T16:03:53;3.77;;;0.97;;
10882;SDS011;5494;51.796;10.952;2022-10-03T16:06:28;4.30;;;1.30;;
10882;SDS011;5494;51.796;10.952;2022-10-03T16:09:09;3.17;;;1.10;;
10882;SDS011;5494;51.796;10.952;2022-10-03T16:11:52;2.80;;;1.20;;
10882;SDS011;5494;51.796;10.952;2022-10-03T16:14:38;4.20;;;1.60;;
10882;SDS011;5494;51.796;10.952;2022-10-03T16:17:13;4.47;;;1.50;;
10882;SDS011;5494;51.796;10.952;2022-10-03T16:19:50;4.87;;;1.07;;
10882;SDS011;5494;51.796;10.952;2022-10-03T16:22:23;3.30;;;1.33;;
10882;SDS011;5494;51.796;10.952;2022-10-03T16:25:04;4.20;;;1.60;;
10882;SDS011;5494;51.796;10.952;2022-10-03T16:27:43;2.93;;;1.60;;
10882;SDS011;5494;51.796;10.952;2022-10-03T16:30:24;5.17;;;1.90;;
10882;SDS011;5494;51.796;10.952;2022-10-03T16:33:00;5.37;;;1.90;;
10882;SDS011;5494;51.796;10.952;2022-10-03T16:35:40;5.13;;;1.93;;
10882;SDS011;5494;51.796;10.952;2022-10-03T16:38:18;7.30;;;3.40;;
10882;SDS011;5494;51.796;10.952;2022-10-03T16:40:52;4.53;;;1.30;;
10882;SDS011;5494;51.796;10.952;2022-10-03T16:43:25;5.10;;;1.50;;
10882;SDS011;5494;51.796;10.952;2022-10-03T16:45:59;8.00;;;2.40;;
10882;SDS011;5494;51.796;10.952;2022-10-03T16:48:35;4.53;;;2.00;;
10882;SDS011;5494;51.796;10.952;2022-10-03T16:51:32;5.23;;;2.03;;
10882;SDS011;5494;51.796;10.952;2022-10-03T16:54:10;7.37;;;1.53;;
10882;SDS011;5494;51.796;10.952;2022-10-03T16:56:42;5.03;;;1.53;;
10882;SDS011;5494;51.796;10.952;2022-10-03T16:59:17;4.40;;;1.67;;
10882;SDS011;5494;51.796;10.952;2022-10-03T17:01:51;3.50;;;1.37;;
10882;SDS011;5494;51.796;10.952;2022-10-03T17:04:27;3.50;;;1.70;;
10882;SDS011;5494;51.796;10.952;2022-10-03T17:07:00;7.10;;;1.97;;
10882;SDS011;5494;51.796;10.952;2022-10-03T17:09:35;3.53;;;1.60;;
10882;SDS011;5494;51.796;10.952;2022-10-03T17:12:13;5.17;;;1.20;;
10882;SDS011;5494;51.796;10.952;2022-10-03T17:14:47;4.57;;;1.20;;
10882;SDS011;5494;51.796;10.952;2022-10-03T17:17:23;4.17;;;1.50;;
10882;SDS011;5494;51.796;10.952;2022-10-03T17:20:00;4.93;;;1.10;;
10882;SDS011;5494;51.796;10.952;2022-10-03T17:22:35;3.17;;;1.00;;
10882;SDS011;5494;51.796;10.952;2022-10-03T17:28:05;6.17;;;1.87;;
10882;SDS011;5494;51.796;10.952;2022-10-03T17:30:43;3.73;;;1.10;;
10882;SDS011;5494;51.796;10.952;2022-10-03T17:33:20;3.03;;;1.33;;
10882;SDS011;5494;51.796;10.952;2022-10-03T17:36:01;2.93;;;1.70;;
10882;SDS011;5494;51.796;10.952;2022-10-03T17:39:02;4.47;;;1.80;;
10882;SDS011;5494;51.796;10.952;2022-10-03T17:41:37;3.70;;;1.90;;
10882;SDS011;5494;51.796;10.952;2022-10-03T17:44:19;5.27;;;1.20;;
10882;SDS011;5494;51.796;10.952;2022-10-03T17:47:04;4.53;;;1.70;;
10882;SDS011;5494;51.796;10.952;2022-10-03T17:49:43;3.77;;;1.30;;
10882;SDS011;5494;51.796;10.952;2022-10-03T17:52:22;3.27;;;1.30;;
10882;SDS011;5494;51.796;10.952;2022-10-03T17:54:55;4.30;;;1.60;;
10882;SDS011;5494;51.796;10.952;2022-10-03T17:57:28;5.97;;;1.80;;
10882;SDS011;5494;51.796;10.952;2022-10-03T18:00:04;3.30;;;1.30;;
10882;SDS011;5494;51.796;10.952;2022-10-03T18:02:44;11.87;;;1.80;;
10882;SDS011;5494;51.796;10.952;2022-10-03T18:05:24;4.33;;;1.57;;
10882;SDS011;5494;51.796;10.952;2022-10-03T18:08:00;5.67;;;1.80;;
10882;SDS011;5494;51.796;10.952;2022-10-03T18:10:35;3.53;;;1.30;;
10882;SDS011;5494;51.796;10.952;2022-10-03T18:13:13;4.60;;;1.90;;
10882;SDS011;5494;51.796;10.952;2022-10-03T18:18:51;4.40;;;1.60;;
10882;SDS011;5494;51.796;10.952;2022-10-03T18:21:43;5.57;;;1.63;;
10882;SDS011;5494;51.796;10.952;2022-10-03T18:24:33;5.47;;;1.67;;
10882;SDS011;5494;51.796;10.952;2022-10-03T18:27:35;3.83;;;1.47;;
10882;SDS011;5494;51.796;10.952;2022-10-03T18:30:42;5.57;;;1.83;;
10882;SDS011;5494;51.796;10.952;2022-10-03T18:33:19;3.30;;;1.37;;
10882;SDS011;5494;51.796;10.952;2022-10-03T18:35:54;6.93;;;1.73;;
10882;SDS011;5494;51.796;10.952;2022-10-03T18:38:28;3.43;;;1.57;;
10882;SDS011;5494;51.796;10.952;2022-10-03T18:41:00;7.10;;;1.50;;
10882;SDS011;5494;51.796;10.952;2022-10-03T18:43:32;4.47;;;1.67;;
10882;SDS011;5494;51.796;10.952;2022-10-03T18:46:14;2.50;;;1.40;;
10882;SDS011;5494;51.796;10.952;2022-10-03T18:48:52;5.93;;;1.27;;
10882;SDS011;5494;51.796;10.952;2022-10-03T18:51:48;4.93;;;1.20;;
10882;SDS011;5494;51.796;10.952;2022-10-03T18:54:32;4.17;;;1.13;;
10882;SDS011;5494;51.796;10.952;2022-10-03T18:57:13;4.20;;;1.50;;
10882;SDS011;5494;51.796;10.952;2022-10-03T18:59:52;7.40;;;1.30;;
10882;SDS011;5494;51.796;10.952;2022-10-03T19:02:30;4.60;;;1.20;;
10882;SDS011;5494;51.796;10.952;2022-10-03T19:05:07;4.00;;;1.37;;
10882;SDS011;5494;51.796;10.952;2022-10-03T19:07:46;7.23;;;1.97;;
10882;SDS011;5494;51.796;10.952;2022-10-03T19:10:34;6.00;;;1.90;;
10882;SDS011;5494;51.796;10.952;2022-10-03T19:13:12;5.47;;;1.80;;
10882;SDS011;5494;51.796;10.952;2022-10-03T19:16:12;3.73;;;1.27;;
10882;SDS011;5494;51.796;10.952;2022-10-03T19:19:02;2.17;;;1.10;;
10882;SDS011;5494;51.796;10.952;2022-10-03T19:21:38;2.60;;;0.93;;
10882;SDS011;5494;51.796;10.952;2022-10-03T19:24:09;4.97;;;1.37;;
10882;SDS011;5494;51.796;10.952;2022-10-03T19:27:11;2.63;;;1.37;;
10882;SDS011;5494;51.796;10.952;2022-10-03T19:29:45;6.20;;;1.40;;
10882;SDS011;5494;51.796;10.952;2022-10-03T19:32:20;11.03;;;1.80;;
10882;SDS011;5494;51.796;10.952;2022-10-03T19:34:57;3.73;;;1.63;;
10882;SDS011;5494;51.796;10.952;2022-10-03T19:37:36;4.13;;;1.43;;
10882;SDS011;5494;51.796;10.952;2022-10-03T19:40:12;3.43;;;1.20;;
10882;SDS011;5494;51.796;10.952;2022-10-03T19:42:58;2.63;;;1.07;;
10882;SDS011;5494;51.796;10.952;2022-10-03T19:45:50;3.70;;;1.20;;
10882;SDS011;5494;51.796;10.952;2022-10-03T19:48:33;6.20;;;1.40;;
10882;SDS011;5494;51.796;10.952;2022-10-03T19:51:12;8.03;;;1.90;;